Time;durP1;ratioP1;P1;durP2;ratioP2;P2;SDS_P1;SDS_P2;PMS_P1;PMS_P2;Temp;Humidity;BMP_temperature;BMP_pressure;BME280_temperature;BME280_humidity;BME280_pressure;Samples;Min_cycle;Max_cycle;Signal;HPM_P1;HPM_P2
2021/06/29 00:02:05;;;;;;;7.45;3.92;;;;;;;19.08;86.95;98767.09;5193228;27;20433;-77
2021/06/29 00:05:00;;;;;;;11.60;3.83;;;;;;;18.79;87.10;98731.91;5152370;27;20149;-77
2021/06/29 00:08:10;;;;;;;7.90;4.30;;;;;;;18.90;86.95;98771.63;5149804;27;20437;-77
2021/06/29 00:11:04;;;;;;;5.25;3.35;;;;;;;18.88;87.01;98772.66;5194575;27;21024;-78
2021/06/29 00:13:58;;;;;;;6.93;3.20;;;;;;;18.82;87.17;98773.91;5130643;27;20492;-77
2021/06/29 00:17:05;;;;;;;8.25;3.53;;;;;;;18.77;87.09;98774.16;5146243;27;20418;-77
2021/06/29 00:19:55;;;;;;;5.15;3.45;;;;;;;18.73;87.06;98777.06;5118118;27;20423;-78
2021/06/29 00:22:50;;;;;;;7.07;3.40;;;;;;;18.65;87.28;98775.72;5107792;27;20889;-78
2021/06/29 00:26:00;;;;;;;8.43;4.05;;;;;;;18.60;87.24;98780.44;5128291;27;20373;-77
2021/06/29 00:28:52;;;;;;;6.28;3.42;;;;;;;18.49;87.38;98762.63;5110403;27;20626;-77
2021/06/29 00:31:46;;;;;;;8.52;3.45;;;;;;;18.45;87.33;98758.47;5193520;27;20441;-77
2021/06/29 00:34:40;;;;;;;6.35;3.25;;;;;;;18.55;87.46;98792.16;5172368;27;20443;-77
2021/06/29 00:37:40;;;;;;;7.10;3.53;;;;;;;18.50;87.61;98781.88;5126368;27;20744;-79
2021/06/29 00:40:35;;;;;;;4.97;3.10;;;;;;;18.36;87.27;98770.38;5193795;27;20479;-78
2021/06/29 00:43:29;;;;;;;6.30;3.50;;;;;;;18.38;87.59;98782.59;5193511;27;20781;-77
2021/06/29 00:46:23;;;;;;;6.88;3.50;;;;;;;18.28;87.47;98774.38;5193562;27;20424;-78
2021/06/29 00:49:17;;;;;;;7.72;3.80;;;;;;;18.30;87.52;98794.41;5099660;27;20409;-77
2021/06/29 00:52:13;;;;;;;7.40;3.40;;;;;;;18.10;87.62;98782.38;5193241;27;20430;-78
2021/06/29 00:55:11;;;;;;;6.25;3.55;;;;;;;18.11;87.62;98783.22;5132033;27;20836;-77
2021/06/29 00:58:19;;;;;;;5.45;3.63;;;;;;;18.21;87.71;98802.81;5139382;27;20427;-78
2021/06/29 01:01:14;;;;;;;8.68;4.20;;;;;;;18.14;87.83;98783.06;5193274;27;20410;-77
2021/06/29 01:04:20;;;;;;;7.35;3.67;;;;;;;18.30;87.89;98802.31;5127840;27;20419;-77
2021/06/29 01:07:15;;;;;;;6.43;3.80;;;;;;;18.24;87.98;98791.28;5192824;27;20420;-77
2021/06/29 01:10:21;;;;;;;6.10;3.63;;;;;;;18.38;87.96;98816.84;5149148;27;20413;-76
2021/06/29 01:13:38;;;;;;;4.30;3.30;;;;;;;18.38;87.97;98801.88;5135395;27;20414;-77
2021/06/29 01:16:29;;;;;;;5.65;3.80;;;;;;;18.42;87.93;98800.75;5123482;27;20498;-77
2021/06/29 01:19:24;;;;;;;7.35;3.80;;;;;;;18.42;87.99;98790.22;5111095;27;20874;-78
2021/06/29 01:22:21;;;;;;;8.05;3.45;;;;;;;18.46;87.94;98785.63;5206580;27;20418;-78
2021/06/29 01:25:15;;;;;;;6.90;3.90;;;;;;;18.55;87.98;98795.66;5205535;27;20391;-76
2021/06/29 01:28:23;;;;;;;6.65;3.80;;;;;;;18.49;88.03;98772.28;5188173;27;20910;-78
2021/06/29 01:31:19;;;;;;;8.00;3.47;;;;;;;18.64;88.04;98789.00;5194379;27;20442;-77
2021/06/29 01:34:22;;;;;;;10.05;3.60;;;;;;;18.69;88.15;98791.34;5144666;27;20429;-77
2021/06/29 01:37:22;;;;;;;9.57;4.18;;;;;;;18.64;88.16;98783.72;5166325;27;20500;-78
2021/06/29 01:40:28;;;;;;;6.10;3.40;;;;;;;18.62;87.91;98781.19;5059154;27;20452;-77
2021/06/29 01:43:29;;;;;;;4.72;3.88;;;;;;;18.72;88.03;98792.03;5115739;27;20763;-77
2021/06/29 01:46:28;;;;;;;5.35;3.55;;;;;;;18.64;88.02;98779.31;5151829;27;20551;-77
2021/06/29 01:49:38;;;;;;;6.80;4.00;;;;;;;18.60;88.03;98775.16;5150360;27;20445;-77
2021/06/29 01:52:31;;;;;;;4.68;3.65;;;;;;;18.76;87.96;98808.50;5120749;27;20894;-77
2021/06/29 01:55:27;;;;;;;5.80;3.30;;;;;;;18.72;88.08;98783.25;5109878;27;20544;-78
2021/06/29 01:58:49;;;;;;;8.88;3.40;;;;;;;18.80;88.02;98794.22;5182193;27;20443;-78
2021/06/29 02:01:25;;;;;;;6.97;3.83;;;;;;;18.79;88.27;98792.50;4505591;27;18721758;-78
2021/06/29 02:04:24;;;;;;;3.92;3.40;;;;;;;18.76;88.08;98788.25;5114651;27;20414;-77
2021/06/29 02:07:15;;;;;;;7.18;3.20;;;;;;;18.82;87.99;98795.81;5120998;27;20443;-77
2021/06/29 02:10:13;;;;;;;6.25;3.30;;;;;;;18.80;87.87;98794.22;5151073;27;20255;-77
2021/06/29 02:13:05;;;;;;;7.63;3.70;;;;;;;18.70;87.71;98778.09;5105882;27;20412;-78
2021/06/29 02:16:00;;;;;;;8.02;4.82;;;;;;;18.77;87.84;98794.38;5150946;27;20270;-78
2021/06/29 02:18:54;;;;;;;12.70;4.78;;;;;;;18.79;87.96;98797.78;5192844;27;20434;-76
2021/06/29 02:22:00;;;;;;;5.88;4.05;;;;;;;18.71;87.84;98800.00;5147623;27;20924;-77
2021/06/29 02:24:54;;;;;;;9.10;4.38;;;;;;;18.77;87.92;98795.22;5192950;27;20416;-76
2021/06/29 02:27:48;;;;;;;13.13;4.00;;;;;;;18.86;87.77;98812.31;5193649;27;20770;-77
2021/06/29 02:30:42;;;;;;;10.27;3.80;;;;;;;18.78;87.72;98790.81;5194853;27;20494;-78
2021/06/29 02:33:48;;;;;;;5.22;3.85;;;;;;;18.76;87.76;98782.16;5143471;27;20436;-78
2021/06/29 02:36:42;;;;;;;5.70;3.55;;;;;;;18.91;87.53;98810.22;5194727;27;20445;-78
2021/06/29 02:39:44;;;;;;;12.52;4.65;;;;;;;18.83;87.54;98801.94;5133626;27;20417;-78
2021/06/29 02:42:38;;;;;;;6.50;3.70;;;;;;;18.94;87.31;98823.22;5193187;27;20957;-78
2021/06/29 02:45:18;;;;;;;7.00;4.03;;;;;;;18.95;87.51;98814.41;4484784;27;19280445;-76
2021/06/29 02:48:12;;;;;;;7.82;4.47;;;;;;;18.93;87.53;98805.72;5192313;27;20544;-78
2021/06/29 02:50:48;;;;;;;6.97;4.53;;;;;;;19.02;87.34;98824.59;4574044;27;15792684;-77
2021/06/29 02:53:41;;;;;;;9.52;4.30;;;;;;;19.01;87.69;98812.38;5171754;27;20411;-76
2021/06/29 02:56:37;;;;;;;6.68;3.70;;;;;;;18.92;87.45;98798.75;5130805;27;20131;-78
2021/06/29 02:59:46;;;;;;;5.72;3.72;;;;;;;19.08;87.35;98811.91;5145078;27;20423;-77
2021/06/29 03:02:40;;;;;;;7.53;3.80;;;;;;;19.14;87.35;98808.03;5193074;27;20771;-77
2021/06/29 03:05:35;;;;;;;8.43;4.00;;;;;;;19.15;87.39;98793.09;5150851;27;20451;-76
2021/06/29 03:08:27;;;;;;;5.07;3.67;;;;;;;19.21;87.38;98795.31;5100346;27;20868;-78
2021/06/29 03:11:22;;;;;;;4.45;3.55;;;;;;;19.37;87.34;98809.31;5150536;27;20137;-77
2021/06/29 03:14:17;;;;;;;6.38;3.50;;;;;;;19.33;87.17;98801.66;5192135;27;20405;-76
2021/06/29 03:17:18;;;;;;;6.13;4.10;;;;;;;19.38;87.05;98804.84;5124956;27;20365;-80
2021/06/29 03:20:13;;;;;;;6.88;4.20;;;;;;;19.43;86.94;98808.06;5192377;27;20550;-77
2021/06/29 03:23:20;;;;;;;9.02;4.22;;;;;;;19.49;86.96;98817.38;5127502;27;20358;-76
2021/06/29 03:26:27;;;;;;;9.40;4.35;;;;;;;19.51;86.80;98819.00;5120665;27;20129;-78
2021/06/29 03:29:19;;;;;;;6.80;4.10;;;;;;;19.55;86.96;98817.84;5091047;27;20138;-78
2021/06/29 03:32:29;;;;;;;4.90;3.60;;;;;;;19.59;86.75;98815.88;5150139;27;20413;-80
2021/06/29 03:35:23;;;;;;;4.32;3.65;;;;;;;19.59;86.75;98809.75;5195422;27;20421;-80
2021/06/29 03:38:19;;;;;;;6.65;4.07;;;;;;;19.69;86.60;98827.56;5153923;27;20486;-76
2021/06/29 03:41:16;;;;;;;4.63;4.05;;;;;;;19.62;86.34;98812.19;5106740;27;20130;-77
2021/06/29 03:44:13;;;;;;;6.10;4.13;;;;;;;19.70;86.33;98825.78;5104854;27;20352;-77
2021/06/29 03:47:08;;;;;;;4.22;3.65;;;;;;;19.69;85.89;98824.09;5151117;27;20146;-78
2021/06/29 03:50:12;;;;;;;6.43;4.07;;;;;;;19.66;86.06;98826.91;5132911;27;20926;-77
2021/06/29 03:53:19;;;;;;;5.82;3.53;;;;;;;19.73;86.16;98833.50;5149289;27;20406;-75
2021/06/29 03:55:54;;;;;;;7.63;4.15;;;;;;;19.69;86.04;98824.91;4511316;27;18570615;-77
2021/06/29 03:59:04;;;;;;;4.85;4.07;;;;;;;19.88;85.94;98839.63;5133227;27;20439;-76
2021/06/29 04:01:58;;;;;;;5.20;3.63;;;;;;;19.82;85.67;98810.97;5192627;27;20429;-78
2021/06/29 04:04:55;;;;;;;7.00;4.10;;;;;;;20.01;85.61;98835.28;5130476;27;20147;-77
2021/06/29 04:07:52;;;;;;;7.72;3.75;;;;;;;20.09;85.70;98839.22;5193403;27;20884;-77
2021/06/29 04:10:45;;;;;;;5.70;3.33;;;;;;;20.12;85.38;98839.03;5193206;27;20890;-78
2021/06/29 04:13:39;;;;;;;6.55;3.40;;;;;;;20.16;85.44;98838.75;5172859;27;20415;-76
2021/06/29 04:16:33;;;;;;;5.10;3.38;;;;;;;20.02;85.32;98818.50;5107939;27;20137;-77
2021/06/29 04:29:52;;;;;;;4.68;3.47;;;;;;;19.95;84.64;98838.31;5151678;27;20495;-78
2021/06/29 04:32:47;;;;;;;8.95;3.83;;;;;;;19.74;84.58;98803.53;5192795;27;20414;-77
2021/06/29 04:35:38;;;;;;;4.75;3.60;;;;;;;19.93;84.49;98848.13;5121718;27;20422;-78
2021/06/29 04:38:30;;;;;;;5.28;3.92;;;;;;;19.95;84.72;98846.22;5109209;27;20352;-78
2021/06/29 04:41:24;;;;;;;4.95;3.25;;;;;;;19.94;84.65;98854.25;5173562;27;20443;-77
2021/06/29 04:44:18;;;;;;;5.03;3.75;;;;;;;19.94;84.53;98846.34;5193258;27;20417;-79
2021/06/29 04:47:13;;;;;;;5.47;3.83;;;;;;;20.04;84.98;98844.78;5119419;27;20435;-81
2021/06/29 04:50:11;;;;;;;6.05;3.97;;;;;;;20.06;84.59;98832.34;5106426;27;20356;-80
2021/06/29 04:53:05;;;;;;;4.22;3.70;;;;;;;20.27;84.55;98850.41;5109891;27;20419;-77
2021/06/29 04:55:56;;;;;;;3.67;3.00;;;;;;;20.37;83.96;98824.25;5090142;27;20361;-77
2021/06/29 04:59:03;;;;;;;4.15;3.33;;;;;;;20.42;83.99;98822.97;5148529;27;20854;-76
2021/06/29 05:01:57;;;;;;;5.78;3.60;;;;;;;20.61;83.80;98827.09;5194768;27;20450;-79
2021/06/29 05:04:54;;;;;;;5.00;3.25;;;;;;;20.73;83.60;98836.84;5105792;27;20680;-79
2021/06/29 05:07:50;;;;;;;5.43;3.20;;;;;;;20.65;83.26;98820.63;5151527;27;20364;-78
2021/06/29 05:10:44;;;;;;;6.13;3.72;;;;;;;20.57;83.12;98844.09;5173779;27;20460;-77
2021/06/29 05:13:49;;;;;;;4.25;3.53;;;;;;;20.38;83.37;98840.00;5083833;27;20362;-80
2021/06/29 05:16:43;;;;;;;8.35;4.32;;;;;;;20.23;83.36;98838.34;5175000;27;20439;-77
2021/06/29 05:19:52;;;;;;;4.85;4.00;;;;;;;20.11;83.18;98838.19;5109991;27;20363;-78
2021/06/29 05:22:48;;;;;;;5.85;4.03;;;;;;;19.94;83.39;98836.59;5135729;27;20135;-80
2021/06/29 05:25:44;;;;;;;5.55;4.32;;;;;;;19.81;83.70;98828.59;5152823;27;20462;-79
2021/06/29 05:28:38;;;;;;;6.47;4.72;;;;;;;19.79;83.46;98835.75;5119883;27;20411;-79
2021/06/29 05:31:37;;;;;;;7.32;4.40;;;;;;;19.92;83.84;98842.94;5115903;27;20419;-78
2021/06/29 05:34:45;;;;;;;4.28;3.58;;;;;;;19.95;83.49;98834.84;5132517;27;20723;-80
2021/06/29 05:37:35;;;;;;;4.40;3.65;;;;;;;19.77;83.65;98811.25;5123832;27;20498;-80
2021/06/29 05:40:31;;;;;;;4.18;3.42;;;;;;;19.78;84.09;98815.56;5154933;27;20126;-82
2021/06/29 05:43:28;;;;;;;3.90;3.50;;;;;;;20.07;83.73;98852.53;5118169;27;20453;-80
2021/06/29 05:46:23;;;;;;;3.92;3.50;;;;;;;20.21;83.88;98848.16;5196894;27;20409;-79
2021/06/29 05:49:14;;;;;;;8.38;4.10;;;;;;;20.25;83.65;98832.03;5130868;27;20348;-79
2021/06/29 05:52:08;;;;;;;5.15;3.53;;;;;;;20.28;83.44;98804.56;5195778;27;20426;-78
2021/06/29 05:55:09;;;;;;;3.78;3.33;;;;;;;20.66;83.27;98838.19;5128267;27;20503;-78
2021/06/29 05:58:03;;;;;;;4.53;3.42;;;;;;;20.70;83.18;98817.69;5183534;27;20449;-82
2021/06/29 06:01:27;;;;;;;3.90;3.60;;;;;;;20.96;82.83;98821.25;5178603;27;20488;-79
2021/06/29 06:04:21;;;;;;;3.92;3.60;;;;;;;21.20;82.33;98839.88;5198264;27;20409;-79
2021/06/29 06:07:22;;;;;;;6.55;3.97;;;;;;;21.38;82.34;98836.97;5149590;27;20414;-79
2021/06/29 06:09:57;;;;;;;4.70;3.80;;;;;;;21.62;81.57;98838.88;3949312;27;33199956;-81
2021/06/29 06:12:51;;;;;;;5.15;3.50;;;;;;;21.92;81.52;98835.88;5184660;27;20427;-78
2021/06/29 06:15:42;;;;;;;4.18;3.70;;;;;;;22.48;81.65;98815.97;5143521;27;20431;-79
2021/06/29 06:18:53;;;;;;;7.70;4.00;;;;;;;23.62;80.82;98818.91;5172533;27;20459;-80
2021/06/29 06:21:48;;;;;;;5.43;3.90;;;;;;;24.34;79.39;98822.06;5216695;27;20409;-78
2021/06/29 06:24:54;;;;;;;4.80;3.42;;;;;;;24.36;76.23;98812.16;5140218;27;20416;-79
2021/06/29 06:27:48;;;;;;;4.05;3.22;;;;;;;24.50;74.98;98795.06;5153552;27;20394;-79
2021/06/29 06:30:47;;;;;;;3.55;3.22;;;;;;;24.45;74.13;98786.63;5194716;27;20496;-79
2021/06/29 06:33:23;;;;;;;6.13;3.80;;;;;;;24.46;73.57;98809.59;3935623;27;33536562;-79
2021/06/29 06:36:18;;;;;;;5.13;3.33;;;;;;;24.15;72.94;98817.44;5184774;27;19926;-79
2021/06/29 06:39:14;;;;;;;6.75;3.45;;;;;;;23.72;72.44;98821.66;5207479;27;20402;-78
2021/06/29 06:42:09;;;;;;;6.03;3.30;;;;;;;23.00;71.88;98783.84;5214399;27;20525;-79
2021/06/29 06:45:06;;;;;;;4.40;3.83;;;;;;;22.65;72.06;98816.50;5193096;27;20411;-79
2021/06/29 06:48:17;;;;;;;9.85;4.00;;;;;;;22.27;72.96;98843.06;5151949;27;20497;-81
2021/06/29 06:51:12;;;;;;;4.32;3.00;;;;;;;22.02;73.90;98846.66;5153224;27;20126;-79
2021/06/29 06:54:06;;;;;;;4.35;2.80;;;;;;;21.85;74.18;98847.84;5196144;27;20404;-78
2021/06/29 06:57:12;;;;;;;3.13;2.75;;;;;;;21.49;74.38;98844.97;5110356;27;20440;-78
2021/06/29 07:00:07;;;;;;;2.53;2.33;;;;;;;21.24;75.66;98850.28;5188834;27;20414;-79
2021/06/29 07:03:02;;;;;;;3.15;2.85;;;;;;;21.07;76.43;98868.13;5194989;27;20413;-79
2021/06/29 07:05:52;;;;;;;4.70;2.45;;;;;;;21.06;77.18;98859.38;5103022;27;20527;-79
2021/06/29 07:08:48;;;;;;;2.97;2.78;;;;;;;21.28;77.49;98865.84;5153400;27;20755;-80
2021/06/29 07:11:44;;;;;;;4.03;2.95;;;;;;;21.28;77.42;98828.81;5191302;27;20493;-80
2021/06/29 07:14:39;;;;;;;4.32;2.60;;;;;;;21.93;77.79;98874.63;5174998;27;20447;-80
2021/06/29 07:17:36;;;;;;;2.83;2.40;;;;;;;22.61;77.97;98860.97;5119927;27;20422;-79
2021/06/29 07:20:30;;;;;;;4.18;3.03;;;;;;;23.28;76.81;98842.78;5195676;27;20413;-80
2021/06/29 07:23:08;;;;;;;3.28;2.60;;;;;;;23.81;76.01;98828.06;5113254;27;20595;-80
2021/06/29 07:25:47;;;;;;;2.70;2.50;;;;;;;24.49;74.95;98860.72;5108820;27;20762;-80
2021/06/29 07:28:27;;;;;;;4.88;2.95;;;;;;;24.75;73.43;98852.41;5100119;27;20944;-79
2021/06/29 07:31:04;;;;;;;9.65;3.30;;;;;;;24.95;71.99;98849.88;5071064;28;20146;-77
2021/06/29 07:33:42;;;;;;;3.33;2.70;;;;;;;25.06;71.50;98862.28;5152405;27;20788;-79
2021/06/29 07:36:20;;;;;;;6.22;2.80;;;;;;;25.35;71.70;98858.97;5072949;28;20138;-80
2021/06/29 07:38:58;;;;;;;3.55;2.20;;;;;;;25.37;68.90;98833.94;5113097;27;20416;-80
2021/06/29 07:41:35;;;;;;;2.83;2.60;;;;;;;24.92;68.19;98847.50;5071966;28;20158;-79
2021/06/29 07:44:14;;;;;;;3.95;2.55;;;;;;;24.45;68.08;98827.34;5112295;27;20415;-78
2021/06/29 07:46:57;;;;;;;3.80;2.40;;;;;;;24.46;68.24;98842.34;5089954;27;20411;-79
2021/06/29 07:49:35;;;;;;;8.63;2.63;;;;;;;24.57;68.57;98824.66;5112408;27;20412;-78
2021/06/29 07:52:15;;;;;;;3.55;2.42;;;;;;;24.95;68.31;98845.41;5174304;27;20420;-79
2021/06/29 07:54:56;;;;;;;5.13;2.70;;;;;;;24.98;67.47;98851.47;5111881;27;20412;-76
2021/06/29 07:57:34;;;;;;;5.72;3.13;;;;;;;24.78;67.58;98835.34;5068663;28;20417;-80
2021/06/29 08:00:13;;;;;;;5.43;2.50;;;;;;;24.53;66.94;98826.72;5105178;27;20405;-79
2021/06/29 08:02:52;;;;;;;4.20;2.78;;;;;;;24.36;67.46;98860.84;5111755;27;20407;-79
2021/06/29 08:05:36;;;;;;;4.32;2.75;;;;;;;24.12;67.76;98852.22;5111520;27;20434;-80
2021/06/29 08:08:13;;;;;;;5.47;2.90;;;;;;;24.01;67.55;98858.38;5111632;27;20186;-81
2021/06/29 08:10:52;;;;;;;6.75;2.70;;;;;;;23.92;68.09;98870.56;5152415;27;20611;-82
2021/06/29 08:13:30;;;;;;;4.65;3.25;;;;;;;23.60;68.02;98868.63;5111593;27;20125;-79
2021/06/29 08:16:11;;;;;;;3.67;2.95;;;;;;;23.50;68.40;98876.44;5091026;27;20405;-79
2021/06/29 08:18:49;;;;;;;6.07;3.38;;;;;;;23.36;68.66;98874.84;5111034;27;20400;-80
2021/06/29 08:21:26;;;;;;;3.45;3.03;;;;;;;23.26;68.83;98872.06;5153508;27;20131;-80
2021/06/29 08:24:05;;;;;;;3.92;2.95;;;;;;;23.27;69.78;98876.41;5111519;27;20717;-79
2021/06/29 08:26:42;;;;;;;4.15;3.05;;;;;;;23.29;69.94;98863.00;5091727;27;20410;-80
2021/06/29 08:29:18;;;;;;;3.42;3.10;;;;;;;23.42;69.56;98882.34;5173466;27;20137;-78
2021/06/29 08:31:56;;;;;;;5.40;2.90;;;;;;;23.30;69.75;98862.91;5111248;27;20152;-78
2021/06/29 08:34:47;;;;;;;4.03;2.88;;;;;;;23.71;69.30;98884.56;5091458;27;20425;-79
2021/06/29 08:37:23;;;;;;;5.65;2.78;;;;;;;23.59;69.01;98890.81;5103533;27;1409585;-80
2021/06/29 08:40:07;;;;;;;7.78;2.67;;;;;;;23.30;68.64;98864.69;5110519;27;20962;-77
2021/06/29 08:42:44;;;;;;;3.58;2.67;;;;;;;23.05;69.11;98855.97;5070972;28;20402;-78
2021/06/29 08:45:21;;;;;;;3.20;2.90;;;;;;;22.98;68.70;98882.06;5110818;27;20151;-79
2021/06/29 08:47:58;;;;;;;2.95;2.60;;;;;;;22.74;69.40;98894.50;5071742;27;20142;-79
2021/06/29 08:51:05;;;;;;;4.65;2.80;;;;;;;22.26;69.37;98891.69;5111907;27;20411;-78
2021/06/29 08:53:42;;;;;;;3.45;2.95;;;;;;;21.91;69.92;98876.53;5113731;27;20909;-79
2021/06/29 08:56:19;;;;;;;6.88;2.97;;;;;;;21.87;70.47;98885.66;5155108;27;20536;-81
2021/06/29 08:58:58;;;;;;;3.78;2.80;;;;;;;22.22;70.85;98900.81;5073497;28;20479;-81
2021/06/29 09:01:35;;;;;;;3.80;2.60;;;;;;;22.34;71.19;98877.91;5134974;27;20537;-78
2021/06/29 09:04:14;;;;;;;5.13;3.10;;;;;;;22.47;70.31;98869.94;5113209;27;20120;-78
2021/06/29 09:06:52;;;;;;;6.93;2.70;;;;;;;22.93;70.51;98907.25;5112518;27;20124;-77
2021/06/29 09:09:31;;;;;;;4.07;2.65;;;;;;;23.36;70.65;98893.44;5091537;27;20191;-77
2021/06/29 09:12:09;;;;;;;4.85;2.60;;;;;;;24.12;70.11;98900.88;5111066;27;20146;-78
2021/06/29 09:14:45;;;;;;;4.95;2.78;;;;;;;24.36;68.05;98894.56;5079618;27;2118678;-77
2021/06/29 09:17:23;;;;;;;5.20;2.80;;;;;;;24.04;67.47;98905.97;5152454;27;20397;-77
2021/06/29 09:20:04;;;;;;;4.32;2.67;;;;;;;23.46;67.62;98902.41;5110827;27;20434;-80
2021/06/29 09:22:43;;;;;;;5.70;2.90;;;;;;;22.72;67.62;98857.53;5111038;27;20789;-78
2021/06/29 09:25:33;;;;;;;4.75;2.72;;;;;;;22.75;68.13;98918.28;5131427;27;20421;-78
2021/06/29 09:28:26;;;;;;;4.90;2.85;;;;;;;22.43;68.73;98924.09;5140146;27;20196;-80
2021/06/29 09:31:11;;;;;;;3.30;2.80;;;;;;;22.08;68.54;98915.03;5072173;27;20357;-79
2021/06/29 09:34:01;;;;;;;5.57;2.95;;;;;;;21.55;69.23;98891.34;5063009;28;20424;-80
2021/06/29 09:36:42;;;;;;;7.93;3.90;;;;;;;21.65;69.68;98934.78;5128754;27;20406;-78
2021/06/29 09:39:20;;;;;;;6.78;3.50;;;;;;;21.72;70.88;98929.91;5205495;27;20412;-80
2021/06/29 09:42:02;;;;;;;3.03;2.72;;;;;;;21.89;70.74;98923.47;5094687;27;20916;-78
2021/06/29 09:44:39;;;;;;;3.75;3.05;;;;;;;22.31;71.59;98915.22;5091600;27;20409;-82
2021/06/29 09:47:25;;;;;;;4.53;2.88;;;;;;;22.69;70.39;98901.03;5110767;27;20411;-79
2021/06/29 09:50:30;;;;;;;4.80;3.10;;;;;;;22.94;70.70;98915.13;5101195;27;1530775;-78
2021/06/29 09:53:16;;;;;;;5.38;3.38;;;;;;;23.02;70.06;98920.69;5005216;27;4188141;-78
2021/06/29 09:55:57;;;;;;;3.80;3.30;;;;;;;22.91;69.41;98928.59;5124271;27;20491;-77
2021/06/29 09:58:35;;;;;;;3.25;2.92;;;;;;;23.04;70.06;98911.75;5051976;28;20408;-79
2021/06/29 10:01:16;;;;;;;6.88;2.55;;;;;;;23.32;69.68;98907.91;5095082;27;20517;-78
2021/06/29 10:04:10;;;;;;;2.72;2.42;;;;;;;23.69;68.72;98896.25;5089948;28;20938;-81
2021/06/29 10:06:48;;;;;;;2.50;2.20;;;;;;;23.73;66.66;98911.81;5089846;27;20535;-78
2021/06/29 10:09:26;;;;;;;5.57;2.28;;;;;;;23.27;67.15;98902.94;5111747;27;20178;-78
2021/06/29 10:12:25;;;;;;;4.90;2.22;;;;;;;22.73;67.26;98891.03;5070379;28;20770;-81
2021/06/29 10:15:02;;;;;;;3.13;2.60;;;;;;;22.09;67.16;98858.47;5112095;27;20926;-80
2021/06/29 10:17:40;;;;;;;4.45;2.20;;;;;;;22.03;68.21;98911.03;5095905;28;20137;-77
2021/06/29 10:20:27;;;;;;;3.53;2.83;;;;;;;21.94;68.65;98931.94;5112317;27;20404;-78
2021/06/29 10:23:05;;;;;;;8.23;2.58;;;;;;;21.91;69.50;98934.78;5069421;28;20176;-78
2021/06/29 10:25:44;;;;;;;4.35;2.70;;;;;;;21.93;69.72;98911.69;5087191;27;20430;-78
2021/06/29 10:28:23;;;;;;;3.13;2.67;;;;;;;22.34;69.96;98924.75;5099481;27;20179;-78
2021/06/29 10:31:01;;;;;;;4.63;3.00;;;;;;;22.67;70.38;98921.50;5092104;28;20410;-78
2021/06/29 10:33:39;;;;;;;3.35;2.53;;;;;;;23.02;69.81;98919.84;5111843;27;20407;-77
2021/06/29 10:36:19;;;;;;;4.10;2.33;;;;;;;23.16;68.94;98901.06;5072770;28;20406;-79
2021/06/29 10:38:58;;;;;;;4.10;2.30;;;;;;;23.44;68.37;98891.06;5101852;27;20413;-78
2021/06/29 10:41:40;;;;;;;2.65;1.90;;;;;;;23.91;68.56;98898.91;5120216;27;20403;-78
2021/06/29 10:44:21;;;;;;;2.85;1.90;;;;;;;24.10;66.92;98886.84;5113904;27;20404;-78
2021/06/29 10:46:59;;;;;;;5.72;1.83;;;;;;;24.39;66.00;98917.38;5095226;27;20409;-78
2021/06/29 10:49:45;;;;;;;2.47;2.00;;;;;;;24.28;65.35;98928.88;5112691;27;20412;-80
2021/06/29 10:52:22;;;;;;;2.53;2.20;;;;;;;24.10;64.69;98925.88;5112093;27;20415;-78
2021/06/29 10:55:14;;;;;;;8.85;2.40;;;;;;;23.85;64.52;98925.13;5111317;27;20137;-79
2021/06/29 10:57:57;;;;;;;4.20;2.10;;;;;;;23.24;64.94;98870.50;5147648;27;20406;-78
2021/06/29 11:00:35;;;;;;;2.92;2.33;;;;;;;23.35;64.58;98931.56;5143222;27;20417;-78
2021/06/29 11:03:13;;;;;;;2.55;2.20;;;;;;;22.90;65.46;98900.41;5112282;27;20420;-79
2021/06/29 11:06:00;;;;;;;3.75;2.60;;;;;;;22.81;65.84;98932.88;5093121;27;20581;-80
2021/06/29 11:08:48;;;;;;;3.72;2.40;;;;;;;22.59;66.35;98939.75;5112371;27;20775;-80
2021/06/29 11:11:26;;;;;;;2.63;2.25;;;;;;;22.16;66.67;98927.78;5173465;27;20395;-79
2021/06/29 11:14:29;;;;;;;4.32;1.90;;;;;;;21.99;67.21;98943.97;5048495;28;20815;-78
2021/06/29 11:17:05;;;;;;;3.83;1.90;;;;;;;21.83;67.41;98947.72;5056073;28;20412;-78
2021/06/29 11:20:06;;;;;;;3.78;2.20;;;;;;;21.72;67.56;98950.25;5091581;27;20397;-79
2021/06/29 11:22:58;;;;;;;3.92;2.10;;;;;;;21.74;68.41;98940.38;5050621;28;20970;-80
2021/06/29 11:25:43;;;;;;;3.60;1.75;;;;;;;21.70;68.19;98946.88;5130223;27;20417;-79
2021/06/29 11:28:29;;;;;;;4.22;1.70;;;;;;;21.35;68.58;98941.19;5110114;27;20408;-79
2021/06/29 11:31:31;;;;;;;5.50;2.30;;;;;;;21.33;68.45;98956.31;5130744;27;20391;-78
2021/06/29 11:34:15;;;;;;;4.30;2.00;;;;;;;21.19;69.06;98956.38;5091135;27;20413;-78
2021/06/29 11:36:55;;;;;;;3.85;2.20;;;;;;;21.00;69.26;98923.22;5110173;27;20441;-78
2021/06/29 11:39:35;;;;;;;8.63;2.28;;;;;;;21.43;70.20;98961.00;5033900;28;20409;-76
2021/06/29 11:42:20;;;;;;;3.35;2.10;;;;;;;21.94;69.87;98950.47;5109897;27;20450;-76
2021/06/29 11:45:05;;;;;;;3.08;1.90;;;;;;;22.31;69.39;98943.53;5090451;27;20405;-79
2021/06/29 11:47:43;;;;;;;3.38;2.05;;;;;;;22.45;68.92;98946.06;5109689;27;20411;-76
2021/06/29 11:50:42;;;;;;;3.60;2.13;;;;;;;22.35;68.23;98892.84;5068611;28;20412;-77
2021/06/29 11:53:38;;;;;;;3.55;1.98;;;;;;;22.83;68.12;98950.38;5097104;27;1612580;-78
2021/06/29 11:56:28;;;;;;;3.33;1.90;;;;;;;22.51;67.25;98915.63;5052561;28;20744;-77
2021/06/29 11:59:05;;;;;;;3.47;1.70;;;;;;;21.71;67.28;98848.81;5130711;27;20944;-80
2021/06/29 12:01:44;;;;;;;3.10;1.70;;;;;;;21.98;67.93;98924.59;5133003;27;20407;-79
2021/06/29 12:04:22;;;;;;;4.43;2.08;;;;;;;21.88;67.31;98955.31;5111560;27;20408;-78
2021/06/29 12:07:08;;;;;;;5.10;1.83;;;;;;;21.67;67.71;98955.84;5071611;28;20492;-77
2021/06/29 12:09:46;;;;;;;4.30;1.50;;;;;;;21.55;68.58;98961.97;5058706;28;20503;-78
2021/06/29 12:12:25;;;;;;;3.30;1.77;;;;;;;21.57;68.51;98939.72;5071487;28;21457;-77
2021/06/29 12:15:10;;;;;;;2.53;1.30;;;;;;;21.75;69.06;98931.50;5056982;28;20415;-78
2021/06/29 12:18:04;;;;;;;2.35;1.73;;;;;;;22.04;68.73;98931.28;5070823;28;20410;-76
2021/06/29 12:20:43;;;;;;;2.50;1.60;;;;;;;22.48;68.02;98939.69;5111122;27;20431;-80
2021/06/29 12:23:25;;;;;;;4.70;1.70;;;;;;;22.55;67.76;98912.63;5111306;27;20411;-78
2021/06/29 12:26:15;;;;;;;4.25;1.63;;;;;;;23.03;66.83;98953.38;5081531;28;20199;-77
2021/06/29 12:28:53;;;;;;;4.10;1.67;;;;;;;22.85;66.06;98927.22;5074014;28;20131;-78
2021/06/29 12:31:42;;;;;;;2.95;2.05;;;;;;;22.79;65.98;98940.09;5110317;27;20756;-77
2021/06/29 12:34:23;;;;;;;2.10;1.83;;;;;;;22.79;66.34;98938.31;5012041;28;20593;-78
2021/06/29 12:37:04;;;;;;;3.75;1.75;;;;;;;22.96;66.14;98952.13;5070896;28;20422;-77
2021/06/29 12:39:44;;;;;;;2.17;1.55;;;;;;;22.77;66.28;98894.28;5092216;27;20405;-78
2021/06/29 12:42:21;;;;;;;3.30;1.77;;;;;;;23.10;66.18;98925.41;5092389;28;20405;-81
2021/06/29 12:45:09;;;;;;;2.75;1.80;;;;;;;23.12;65.61;98899.59;5062532;27;20139;-79
2021/06/29 12:48:04;;;;;;;3.63;1.60;;;;;;;23.39;65.15;98946.28;5112779;27;20426;-78
2021/06/29 12:50:42;;;;;;;3.10;1.60;;;;;;;23.30;65.14;98934.56;5113387;27;20403;-78
2021/06/29 12:53:25;;;;;;;2.40;1.35;;;;;;;23.30;64.45;98944.31;5109354;27;20408;-79
2021/06/29 12:56:16;;;;;;;3.67;1.77;;;;;;;22.91;64.34;98911.84;5071582;28;20406;-79
2021/06/29 12:58:54;;;;;;;3.10;1.80;;;;;;;22.90;64.92;98920.75;5096952;27;20401;-84
2021/06/29 13:01:35;;;;;;;3.30;1.60;;;;;;;22.92;65.25;98929.44;5115547;27;20414;-78
2021/06/29 13:04:14;;;;;;;4.70;1.80;;;;;;;22.85;65.23;98947.63;5071543;28;20407;-77
2021/06/29 13:07:07;;;;;;;6.60;1.90;;;;;;;22.60;65.62;98930.84;5165393;27;20132;-79
2021/06/29 13:09:46;;;;;;;7.65;1.60;;;;;;;22.55;65.68;98949.75;5053163;28;20422;-79
2021/06/29 13:12:30;;;;;;;3.88;1.20;;;;;;;22.27;65.68;98954.34;5091736;28;20409;-76
2021/06/29 13:15:12;;;;;;;6.80;1.50;;;;;;;22.09;66.86;98958.28;5099472;27;20409;-77
2021/06/29 13:17:59;;;;;;;3.47;1.33;;;;;;;22.01;67.01;98957.97;5071449;27;20416;-76
2021/06/29 13:20:35;;;;;;;2.53;1.00;;;;;;;21.95;68.09;98954.81;5154737;27;20405;-75
2021/06/29 13:23:12;;;;;;;4.28;1.40;;;;;;;21.94;68.29;98946.97;5113250;27;20136;-79
2021/06/29 13:25:49;;;;;;;3.05;1.52;;;;;;;22.03;68.31;98946.31;5071978;28;20183;-76
2021/06/29 13:28:27;;;;;;;2.80;1.30;;;;;;;22.27;68.98;98962.28;5076975;28;20410;-79